Map

Track Data

SID SEASON NUMBER BASIN SUBBASIN NAME ISO_TIME NATURE LAT LON WMO_WIND WMO_PRES WMO_AGENCY TRACK_TYPE DIST2LAND LANDFALL IFLAG USA_AGENCY USA_ATCF_ID USA_LAT USA_LON USA_RECORD USA_STATUS USA_WIND USA_PRES USA_SSHS USA_R34_NE USA_R34_SE USA_R34_SW USA_R34_NW USA_R50_NE USA_R50_SE USA_R50_SW USA_R50_NW USA_R64_NE USA_R64_SE USA_R64_SW USA_R64_NW USA_POCI USA_ROCI USA_RMW USA_EYE TOKYO_LAT TOKYO_LON TOKYO_GRADE TOKYO_WIND TOKYO_PRES TOKYO_R50_DIR TOKYO_R50_LONG TOKYO_R50_SHORT TOKYO_R30_DIR TOKYO_R30_LONG TOKYO_R30_SHORT TOKYO_LAND CMA_LAT CMA_LON CMA_CAT CMA_WIND CMA_PRES HKO_LAT HKO_LON HKO_CAT HKO_WIND HKO_PRES NEWDELHI_LAT NEWDELHI_LON NEWDELHI_GRADE NEWDELHI_WIND NEWDELHI_PRES NEWDELHI_CI NEWDELHI_DP NEWDELHI_POCI REUNION_LAT REUNION_LON REUNION_TYPE REUNION_WIND REUNION_PRES REUNION_TNUM REUNION_CI REUNION_RMW REUNION_R34_NE REUNION_R34_SE REUNION_R34_SW REUNION_R34_NW REUNION_R50_NE REUNION_R50_SE REUNION_R50_SW REUNION_R50_NW REUNION_R64_NE REUNION_R64_SE REUNION_R64_SW REUNION_R64_NW BOM_LAT BOM_LON BOM_TYPE BOM_WIND BOM_PRES BOM_TNUM BOM_CI BOM_RMW BOM_R34_NE BOM_R34_SE BOM_R34_SW BOM_R34_NW BOM_R50_NE BOM_R50_SE BOM_R50_SW BOM_R50_NW BOM_R64_NE BOM_R64_SE BOM_R64_SW BOM_R64_NW BOM_ROCI BOM_POCI BOM_EYE BOM_POS_METHOD BOM_PRES_METHOD NADI_LAT NADI_LON NADI_CAT NADI_WIND NADI_PRES WELLINGTON_LAT WELLINGTON_LON WELLINGTON_WIND WELLINGTON_PRES DS824_LAT DS824_LON DS824_STAGE DS824_WIND DS824_PRES TD9636_LAT TD9636_LON TD9636_STAGE TD9636_WIND TD9636_PRES TD9635_LAT TD9635_LON TD9635_WIND TD9635_PRES TD9635_ROCI NEUMANN_LAT NEUMANN_LON NEUMANN_CLASS NEUMANN_WIND NEUMANN_PRES MLC_LAT MLC_LON MLC_CLASS MLC_WIND MLC_PRES USA_GUST BOM_GUST BOM_GUST_PER REUNION_GUST REUNION_GUST_PER USA_SEAHGT USA_SEARAD_NE USA_SEARAD_SE USA_SEARAD_SW USA_SEARAD_NW STORM_SPEED STORM_DIR
2007033S12177 2007 5 SP MM NOT_NAMED 2007-02-01 18:00:00 TS -11.8000 176.900 main 572 572 O___________O_ jtwc_sh SH112007 -11.8000 176.900 DB 15 1006 -3 -11.8000 176.900 TC 15 5 278
2007033S12177 2007 5 SP MM NOT_NAMED 2007-02-01 21:00:00 TS -11.7701 176.670 main 581 581 P___________P_ SH112007 -11.7701 176.670 DB 17 1005 -3 -11.7701 176.670 TC 17 4 270
2007033S12177 2007 5 SP MM NOT_NAMED 2007-02-02 00:00:00 TS -11.8000 176.500 main 589 578 O___________O_ jtwc_sh SH112007 -11.8000 176.500 DB 20 1004 -3 -11.8000 176.500 TC 20 3 237
2007033S12177 2007 5 SP MM NOT_NAMED 2007-02-02 03:00:00 TS -11.9275 176.428 main 583 562 P___________P_ SH112007 -11.9275 176.428 DB 22 1003 -3 -11.9275 176.428 TC 22 3 197
2007033S12177 2007 5 SP MM NOT_NAMED 2007-02-02 06:00:00 TS -12.1000 176.400 main 562 552 O___________O_ jtwc_sh SH112007 -12.1000 176.400 TD 25 1002 -1 1006 240 40 -12.1000 176.400 TC 25 3 194
2007033S12177 2007 5 SP MM NOT_NAMED 2007-02-02 09:00:00 TS -12.2575 176.343 main 546 536 P___________P_ SH112007 -12.2575 176.343 TD 25 1002 -1 1004 200 40 -12.2575 176.343 TC 25 3 197
2007033S12177 2007 5 SP MM NOT_NAMED 2007-02-02 12:00:00 TS -12.4000 176.300 main 536 526 O___________O_ jtwc_sh SH112007 -12.4000 176.300 TD 25 1002 -1 1003 160 40 -12.4000 176.300 TC 25 3 193
2007033S12177 2007 5 SP MM NOT_NAMED 2007-02-02 15:00:00 TS -12.5075 176.292 main 526 516 P___________P_ SH112007 -12.5075 176.292 TD 27 1001 -1 1003 155 40 -12.5075 176.292 TC 27 2 172
2007033S12177 2007 5 SP MM NOT_NAMED 2007-02-02 18:00:00 TS -12.6000 176.300 main 516 506 O___________O_ jtwc_sh SH112007 -12.6000 176.300 TD 30 1000 -1 1003 150 40 -12.6000 176.300 TC 30 2 0
2007033S12177 2007 5 SP MM NOT_NAMED 2007-02-02 21:00:00 TS -12.6850 176.300 main 506 496 P___________P_ SH112007 -12.6850 176.300 TD 30 1000 -1 1004 165 42 -12.6850 176.300 TC 30 2 172
2007033S12177 2007 5 SP MM NOT_NAMED 2007-02-03 00:00:00 TS -12.8000 176.300 main 496 476 O___________O_ jtwc_sh SH112007 -12.8000 176.300 TD 30 1000 -1 1006 180 45 -12.8000 176.300 TC 30 3 183
2007033S12177 2007 5 SP MM NOT_NAMED 2007-02-03 03:00:00 TS -12.9700 176.285 main 476 457 P___________P_ SH112007 -12.9700 176.285 TD 30 1000 -1 1005 190 45 -12.9700 176.285 TC 30 4 0
2007033S12177 2007 5 SP MM NOT_NAMED 2007-02-03 06:00:00 TS -13.2000 176.300 main 457 423 O___________O_ jtwc_sh SH112007 -13.2000 176.300 TD 30 1000 -1 1004 200 45 -13.2000 176.300 TC 30 5 171
2007033S12177 2007 5 SP MM NOT_NAMED 2007-02-03 09:00:00 TS -13.4700 176.363 main 423 389 P___________P_ SH112007 -13.4700 176.363 TD 30 1000 -1 1004 200 45 -13.4700 176.363 TC 30 6 162
2007033S12177 2007 5 SP MM NOT_NAMED 2007-02-03 12:00:00 TS -13.8000 176.500 main 389 349 O___________O_ jtwc_sh SH112007 -13.8000 176.500 TD 30 1000 -1 1004 200 45 -13.8000 176.500 TC 30 8 156
2007033S12177 2007 5 SP MM NOT_NAMED 2007-02-03 15:00:00 TS -14.1698 176.683 main 339 284 P___________P_ SH112007 -14.1698 176.683 TD 30 1000 -1 1004 200 42 -14.1698 176.683 TC 30 9 149
2007033S12177 2007 5 SP MM NOT_NAMED 2007-02-03 18:00:00 TS -14.6000 177.000 main 284 223 O___________O_ jtwc_sh SH112007 -14.6000 177.000 TS 30 1000 -1 1004 200 40 -14.6000 177.000 TC 30 12 139
2007033S12177 2007 5 SP MM NOT_NAMED 2007-02-03 21:00:00 TS -15.0397 177.453 main 218 130 P___________P_ SH112007 -15.0397 177.453 TS 32 998 -1 1004 200 40 -15.0397 177.453 TC 32 15 133
2007033S12177 2007 5 SP MM NOT_NAMED 2007-02-04 00:00:00 TS -15.6000 178.100 main 130 24 O___________O_ jtwc_sh SH112007 -15.6000 178.100 TS 35 997 0 1004 200 40 -15.6000 178.100 TC 35 20 133
2007033S12177 2007 5 SP MM NOT_NAMED 2007-02-04 03:00:00 TS -16.3776 178.940 main 15 0 P___________P_ SH112007 -16.3776 178.940 TS 35 997 0 1003 200 40 -16.3776 178.940 TC 35 24 133
2007033S12177 2007 5 SP MM NOT_NAMED 2007-02-04 06:00:00 TS -17.2000 179.900 main 44 44 O___________O_ jtwc_sh SH112007 -17.2000 179.900 TS 35 997 0 1003 200 40 -17.2000 179.900 TC 35 24 130
2007033S12177 2007 5 SP MM NOT_NAMED 2007-02-04 09:00:00 TS -17.8870 180.836 main 155 155 P___________P_ SH112007 -17.8870 -179.164 TS 35 997 0 1003 200 40 -17.8870 -179.164 TC 35 22 126
2007033S12177 2007 5 SP MM NOT_NAMED 2007-02-04 12:00:00 TS -18.5000 181.800 main 276 276 O___________O_ jtwc_sh SH112007 -18.5000 -178.200 TS 35 997 0 1003 200 40 -18.5000 -178.200 TC 35 22 123
2007033S12177 2007 5 SP MM NOT_NAMED 2007-02-04 15:00:00 TS -19.0643 182.779 main 400 400 P___________P_ SH112007 -19.0643 -177.221 TS 32 998 -1 1002 200 37 -19.0643 -177.221 TC 32 22 120
2007033S12177 2007 5 SP MM NOT_NAMED 2007-02-04 18:00:00 TS -19.6000 183.800 main 517 517 O___________O_ jtwc_sh SH112007 -19.6000 -176.200 TD 30 1000 -1 1002 200 35 -19.6000 -176.200 TC 30 23 118
2007033S12177 2007 5 SP MM NOT_NAMED 2007-02-04 21:00:00 TS -20.1422 184.893 main 643 643 P___________P_ SH112007 -20.1422 -175.107 TD 30 1000 -1 1002 200 35 -20.1422 -175.107 TC 30 23 118
2007033S12177 2007 5 SP MM NOT_NAMED 2007-02-05 00:00:00 TS -20.7000 186.000 main 776 776 O___________O_ jtwc_sh SH112007 -20.7000 -174.000 TD 30 1000 -1 1002 200 35 -20.7000 -174.000 TC 30 23 123
2007033S12177 2007 5 SP MM NOT_NAMED 2007-02-05 03:00:00 TS -21.4104 186.996 main 851 850 P___________P_ SH112007 -21.4104 -173.004 TD 30 1000 -1 -21.4104 -173.004 TC 30 23 122
2007033S12177 2007 5 SP MM NOT_NAMED 2007-02-05 06:00:00 TS -21.9000 188.100 main 906 906 O___________O_ jtwc_sh SH112007 -21.9000 -171.900 TD 30 1000 -1 -21.9000 -171.900 TC 30 24 100
2007033S12177 2007 5 SP MM NOT_NAMED 2007-02-05 09:00:00 TS -21.8205 189.508 main 913 911 P___________P_ SH112007 -21.8205 -170.492 TD 27 1001 -1 -21.8205 -170.492 TC 27 27 82
2007033S12177 2007 5 SP MM NOT_NAMED 2007-02-05 12:00:00 TS -21.5000 191.000 main 925 925 O___________O_ jtwc_sh SH112007 -21.5000 -169.000 TD 25 1002 -1 -21.5000 -169.000 TC 25 27 78
2007033S12177 2007 5 SP MM NOT_NAMED 2007-02-05 15:00:00 TS -21.2611 192.389 main 970 966 P___________P_ SH112007 -21.2611 -167.611 TD 25 1002 -1 -21.2611 -167.611 TC 25 25 81
2007033S12177 2007 5 SP MM NOT_NAMED 2007-02-05 18:00:00 TS -21.1000 193.700 main 1028 O___________O_ jtwc_sh SH112007 -21.1000 -166.300 TD 25 1002 -1 -21.1000 -166.300 TC 25 25 83

Digital Typhoon Data and Search

About IBTrACS Database

This database is a web-friendly format of International Best Track Archive for Climate Stewardship (IBTrACS), a global best track data archive curated by NOAA dating back to 1842.

Updated: 2021-12-03